»·PEaware :: N59JN KATL-KEYE

N59JN :: KATL-KEYE

FLIGHT INFORMATION

Flight Status: Arrived
Operator: Privately registered:
United States
More flights under this callsign
Pilot: Andrew J. (13363)
Aircraft: CESSNA 550 CITATION 2/S2/BRAVO
(C550)
More flights by this aircraft type
Origin: KATL Hartsfield-Jackson Atlanta
United States
Destination: KEYE Eagle Creek
United States
More flights between these airports :: More routes between these airports
Route: PADGT2 RAFTN SWAPP J89 MACES
File this flight plan on PilotEdge
Remarks:
Altitude:
(Current/Filed)
36,000ft
Speed:
(Current/Filed)
390kts
Departed: 14-Nov-18 07:42 PM
Arrived: 14-Nov-18 08:58 PM
Distance/Time
Traveled:
382nm/1:15
Distance/Time
To Go:
Arrived

Flight Plot

Page will automatically refresh every two minutes.

Flight plan parsing failed; only flown route is shown


Map Options




Map Legend


Flown Route
Filed Route
Departure Airport
Arrival Airport
Navaid (VOR, NDB)
Fix

Horizontal Profiles

Position Reports

Time Latitude Longitude Heading Altitude Ground
Speed
14-Nov-18 19:36 33.652348 -84.424335 87 1029ft 0kts
14-Nov-18 19:37 33.652348 -84.424335 87 1029ft 0kts
14-Nov-18 19:38 33.652348 -84.424335 87 1029ft 0kts
14-Nov-18 19:39 33.652348 -84.424335 87 1029ft 0kts
14-Nov-18 19:40 33.652348 -84.424325 87 1029ft 0kts
14-Nov-18 19:41 33.651439 -84.424684 252 1029ft 8kts
14-Nov-18 19:42 33.650645 -84.427943 269 1029ft 8kts
14-Nov-18 19:43 33.650654 -84.433116 280 1029ft 23kts
14-Nov-18 19:44 33.650711 -84.438628 214 1029ft 12kts
14-Nov-18 19:45 33.649516 -84.434284 89 1029ft 88kts
14-Nov-18 19:46 33.649036 -84.381712 86 4341ft 169kts
14-Nov-18 19:47 33.659172 -84.321269 82 7626ft 199kts
14-Nov-18 19:48 33.670990 -84.256057 82 10681ft 215kts
14-Nov-18 19:49 33.693641 -84.189608 22 13384ft 242kts
14-Nov-18 19:50 33.761741 -84.179772 357 15954ft 257kts
14-Nov-18 19:51 33.834995 -84.179130 352 18296ft 272kts
14-Nov-18 19:52 33.903973 -84.210244 325 20478ft 270kts
14-Nov-18 19:53 33.974374 -84.246869 327 22471ft 283kts
14-Nov-18 19:54 34.048603 -84.282230 326 24304ft 293kts
14-Nov-18 19:55 34.123275 -84.317922 325 25877ft 302kts
14-Nov-18 19:56 34.202085 -84.355657 324 27297ft 309kts
14-Nov-18 19:57 34.282501 -84.394175 326 28583ft 318kts
14-Nov-18 19:58 34.376881 -84.401677 349 29691ft 352kts
14-Nov-18 19:59 34.474668 -84.401833 347 31190ft 341kts
14-Nov-18 20:00 34.570781 -84.402539 347 32283ft 353kts
14-Nov-18 20:01 34.669736 -84.402976 346 33555ft 360kts
14-Nov-18 20:02 34.771006 -84.403604 346 34677ft 369kts
14-Nov-18 20:03 34.873793 -84.404138 347 35759ft 374kts
14-Nov-18 20:04 34.979600 -84.404672 347 36229ft 396kts
14-Nov-18 20:05 35.086853 -84.424527 323 36218ft 385kts
14-Nov-18 20:06 35.186813 -84.472641 322 36224ft 395kts
14-Nov-18 20:07 35.289726 -84.522835 322 36210ft 406kts
14-Nov-18 20:08 35.395294 -84.574565 322 36214ft 412kts
14-Nov-18 20:09 35.501873 -84.626906 322 36216ft 416kts
14-Nov-18 20:10 35.605336 -84.677867 322 36215ft 419kts
14-Nov-18 20:11 35.713694 -84.731394 322 36192ft 423kts
14-Nov-18 20:12 35.822478 -84.785248 322 36186ft 422kts
14-Nov-18 20:13 35.929062 -84.838150 321 36182ft 409kts
14-Nov-18 20:14 36.034483 -84.890741 321 36177ft 408kts
14-Nov-18 20:15 36.137147 -84.942061 321 36151ft 407kts
14-Nov-18 20:16 36.241652 -84.994417 321 36148ft 404kts
14-Nov-18 20:17 36.345681 -85.046741 321 36151ft 406kts
14-Nov-18 20:18 36.450097 -85.099393 321 36175ft 408kts
14-Nov-18 20:19 36.555272 -85.152591 321 36200ft 411kts
14-Nov-18 20:20 36.666932 -85.196109 333 36214ft 435kts
14-Nov-18 20:21 36.785710 -85.227069 334 36216ft 439kts
14-Nov-18 20:22 36.905155 -85.258303 334 36228ft 442kts
14-Nov-18 20:23 37.025328 -85.289765 334 36250ft 444kts
14-Nov-18 20:24 37.139932 -85.319961 334 36250ft 444kts
14-Nov-18 20:25 37.260252 -85.351724 334 36252ft 443kts
14-Nov-18 20:26 37.380196 -85.383530 334 36254ft 442kts
14-Nov-18 20:27 37.500246 -85.415471 334 36255ft 442kts
14-Nov-18 20:28 37.620531 -85.447541 334 36252ft 443kts
14-Nov-18 20:29 37.740499 -85.479655 334 36255ft 443kts
14-Nov-18 20:30 37.860882 -85.511982 334 36260ft 444kts
14-Nov-18 20:31 37.981582 -85.544489 334 36269ft 445kts
14-Nov-18 20:32 38.100761 -85.576789 329 36301ft 438kts
14-Nov-18 20:33 38.203375 -85.635783 318 36272ft 416kts
14-Nov-18 20:34 38.307098 -85.696960 318 36283ft 416kts
14-Nov-18 20:35 38.411999 -85.758841 318 36294ft 417kts
14-Nov-18 20:36 38.516945 -85.820936 318 36307ft 417kts
14-Nov-18 20:37 38.621625 -85.883085 318 36312ft 418kts
14-Nov-18 20:38 38.726643 -85.945613 318 36337ft 418kts
14-Nov-18 20:39 38.831649 -86.008359 318 36371ft 418kts
14-Nov-18 20:40 38.936994 -86.071443 317 36403ft 420kts
14-Nov-18 20:41 39.039742 -86.133023 316 35536ft 403kts
14-Nov-18 20:42 39.140528 -86.194133 316 33670ft 405kts
14-Nov-18 20:43 39.242112 -86.255951 319 31689ft 407kts
14-Nov-18 20:44 39.344701 -86.318274 322 29735ft 411kts
14-Nov-18 20:45 39.448258 -86.381427 325 27516ft 416kts
14-Nov-18 20:46 39.552545 -86.445138 328 25113ft 415kts
14-Nov-18 20:47 39.656023 -86.508517 331 22727ft 408kts
14-Nov-18 20:48 39.756763 -86.570421 333 20363ft 396kts
14-Nov-18 20:49 39.853869 -86.630292 334 18008ft 380kts
14-Nov-18 20:50 39.946567 -86.685773 348 15632ft 349kts
14-Nov-18 20:51 39.995270 -86.625209 114 12674ft 259kts
14-Nov-18 20:52 39.936864 -86.581227 156 9699ft 247kts
14-Nov-18 20:53 39.872016 -86.565801 189 6712ft 246kts
14-Nov-18 20:54 39.809183 -86.562828 151 4410ft 213kts
14-Nov-18 20:55 39.777754 -86.507870 105 2965ft 178kts
14-Nov-18 20:56 39.775832 -86.444894 84 2356ft 176kts
14-Nov-18 20:57 39.778728 -86.381505 82 2056ft 171kts
14-Nov-18 20:58 39.790272 -86.331058 55 1734ft 116kts
14-Nov-18 20:59 39.810446 -86.307011 30 1249ft 94kts
14-Nov-18 21:00 39.832444 -86.293304 23 815ft 41kts
14-Nov-18 21:01 39.833623 -86.291805 205 816ft 3kts
14-Nov-18 21:02 39.829588 -86.294307 205 814ft 25kts
14-Nov-18 21:03 39.825881 -86.296236 26 814ft 3kts
14-Nov-18 21:04 39.825883 -86.296235 26 814ft 0kts
14-Nov-18 21:05 39.825883 -86.296235 26 814ft 0kts

Navigation Log

Ident Type
Flight plan parsing failed, navigation log unavailable